sensor_id;sensor_type;location;lat;lon;timestamp;P1;durP1;ratioP1;P2;durP2;ratioP2
12467;SDS011;57850;52.922;6.256;2023-11-22T00:00:19;13.38;;;7.32;;
12467;SDS011;57850;52.922;6.256;2023-11-22T00:02:47;11.20;;;6.82;;
12467;SDS011;57850;52.922;6.256;2023-11-22T00:05:15;10.07;;;7.03;;
12467;SDS011;57850;52.922;6.256;2023-11-22T00:07:41;10.07;;;6.72;;
12467;SDS011;57850;52.922;6.256;2023-11-22T00:10:08;9.20;;;7.13;;
12467;SDS011;57850;52.922;6.256;2023-11-22T00:12:35;12.38;;;6.75;;
12467;SDS011;57850;52.922;6.256;2023-11-22T00:15:03;11.40;;;6.38;;
12467;SDS011;57850;52.922;6.256;2023-11-22T00:17:31;9.43;;;6.30;;
12467;SDS011;57850;52.922;6.256;2023-11-22T00:19:58;10.25;;;6.05;;
12467;SDS011;57850;52.922;6.256;2023-11-22T00:22:27;9.98;;;6.78;;
12467;SDS011;57850;52.922;6.256;2023-11-22T00:24:53;11.68;;;7.07;;
12467;SDS011;57850;52.922;6.256;2023-11-22T00:27:20;9.55;;;6.78;;
12467;SDS011;57850;52.922;6.256;2023-11-22T00:29:47;9.38;;;6.07;;
12467;SDS011;57850;52.922;6.256;2023-11-22T00:32:13;9.20;;;6.35;;
12467;SDS011;57850;52.922;6.256;2023-11-22T00:34:40;7.30;;;5.60;;
12467;SDS011;57850;52.922;6.256;2023-11-22T00:37:07;10.25;;;6.55;;
12467;SDS011;57850;52.922;6.256;2023-11-22T00:39:35;8.57;;;5.85;;
12467;SDS011;57850;52.922;6.256;2023-11-22T00:42:02;9.77;;;6.22;;
12467;SDS011;57850;52.922;6.256;2023-11-22T00:44:29;10.38;;;6.10;;
12467;SDS011;57850;52.922;6.256;2023-11-22T00:46:55;13.75;;;6.40;;
12467;SDS011;57850;52.922;6.256;2023-11-22T00:49:22;8.80;;;6.50;;
12467;SDS011;57850;52.922;6.256;2023-11-22T00:51:49;10.18;;;5.97;;
12467;SDS011;57850;52.922;6.256;2023-11-22T00:54:15;10.18;;;7.47;;
12467;SDS011;57850;52.922;6.256;2023-11-22T00:56:45;11.60;;;6.50;;
12467;SDS011;57850;52.922;6.256;2023-11-22T00:59:12;8.25;;;6.20;;
12467;SDS011;57850;52.922;6.256;2023-11-22T01:01:39;9.10;;;6.10;;
12467;SDS011;57850;52.922;6.256;2023-11-22T01:04:06;11.43;;;6.70;;
12467;SDS011;57850;52.922;6.256;2023-11-22T01:06:32;9.55;;;6.30;;
12467;SDS011;57850;52.922;6.256;2023-11-22T01:08:59;12.02;;;6.95;;
12467;SDS011;57850;52.922;6.256;2023-11-22T01:11:26;10.90;;;6.53;;
12467;SDS011;57850;52.922;6.256;2023-11-22T01:13:54;9.20;;;7.03;;
12467;SDS011;57850;52.922;6.256;2023-11-22T01:16:21;10.52;;;6.60;;
12467;SDS011;57850;52.922;6.256;2023-11-22T01:18:48;10.82;;;6.63;;
12467;SDS011;57850;52.922;6.256;2023-11-22T01:21:15;11.20;;;7.47;;
12467;SDS011;57850;52.922;6.256;2023-11-22T01:23:41;10.93;;;6.95;;
12467;SDS011;57850;52.922;6.256;2023-11-22T01:26:10;10.70;;;6.82;;
12467;SDS011;57850;52.922;6.256;2023-11-22T01:28:37;11.40;;;7.22;;
12467;SDS011;57850;52.922;6.256;2023-11-22T01:31:11;9.95;;;6.32;;
12467;SDS011;57850;52.922;6.256;2023-11-22T01:33:39;11.38;;;7.35;;
12467;SDS011;57850;52.922;6.256;2023-11-22T01:36:06;11.23;;;6.65;;
12467;SDS011;57850;52.922;6.256;2023-11-22T01:38:32;10.52;;;7.18;;
12467;SDS011;57850;52.922;6.256;2023-11-22T01:40:59;12.77;;;6.72;;
12467;SDS011;57850;52.922;6.256;2023-11-22T01:43:26;9.60;;;6.90;;
12467;SDS011;57850;52.922;6.256;2023-11-22T01:45:54;12.10;;;7.55;;
12467;SDS011;57850;52.922;6.256;2023-11-22T01:48:22;11.00;;;7.47;;
12467;SDS011;57850;52.922;6.256;2023-11-22T01:50:49;9.23;;;6.28;;
12467;SDS011;57850;52.922;6.256;2023-11-22T01:53:16;11.65;;;7.40;;
12467;SDS011;57850;52.922;6.256;2023-11-22T01:55:43;12.65;;;7.90;;
12467;SDS011;57850;52.922;6.256;2023-11-22T01:58:12;12.93;;;7.72;;
12467;SDS011;57850;52.922;6.256;2023-11-22T02:00:42;12.00;;;7.28;;
12467;SDS011;57850;52.922;6.256;2023-11-22T02:03:11;11.88;;;7.22;;
12467;SDS011;57850;52.922;6.256;2023-11-22T02:05:40;11.27;;;7.55;;
12467;SDS011;57850;52.922;6.256;2023-11-22T02:08:08;13.52;;;7.05;;
12467;SDS011;57850;52.922;6.256;2023-11-22T02:10:35;11.95;;;7.20;;
12467;SDS011;57850;52.922;6.256;2023-11-22T02:13:02;10.25;;;7.05;;
12467;SDS011;57850;52.922;6.256;2023-11-22T02:15:30;10.55;;;6.35;;
12467;SDS011;57850;52.922;6.256;2023-11-22T02:17:57;10.30;;;6.63;;
12467;SDS011;57850;52.922;6.256;2023-11-22T02:20:23;9.50;;;6.30;;
12467;SDS011;57850;52.922;6.256;2023-11-22T02:22:52;10.63;;;7.38;;
12467;SDS011;57850;52.922;6.256;2023-11-22T02:25:20;10.52;;;6.05;;
12467;SDS011;57850;52.922;6.256;2023-11-22T02:27:47;10.65;;;6.47;;
12467;SDS011;57850;52.922;6.256;2023-11-22T02:30:14;14.93;;;6.07;;
12467;SDS011;57850;52.922;6.256;2023-11-22T02:32:41;11.60;;;6.88;;
12467;SDS011;57850;52.922;6.256;2023-11-22T02:35:08;11.80;;;6.88;;
12467;SDS011;57850;52.922;6.256;2023-11-22T02:37:34;11.05;;;7.18;;
12467;SDS011;57850;52.922;6.256;2023-11-22T02:40:02;14.13;;;7.43;;
12467;SDS011;57850;52.922;6.256;2023-11-22T02:42:33;11.10;;;7.20;;
12467;SDS011;57850;52.922;6.256;2023-11-22T02:45:00;10.38;;;6.75;;
12467;SDS011;57850;52.922;6.256;2023-11-22T02:47:27;9.68;;;6.35;;
12467;SDS011;57850;52.922;6.256;2023-11-22T02:49:55;11.15;;;6.97;;
12467;SDS011;57850;52.922;6.256;2023-11-22T02:52:22;10.05;;;6.57;;
12467;SDS011;57850;52.922;6.256;2023-11-22T02:54:49;11.02;;;6.78;;
12467;SDS011;57850;52.922;6.256;2023-11-22T02:57:15;13.38;;;6.68;;
12467;SDS011;57850;52.922;6.256;2023-11-22T02:59:44;11.15;;;7.03;;
12467;SDS011;57850;52.922;6.256;2023-11-22T03:02:10;13.50;;;7.70;;
12467;SDS011;57850;52.922;6.256;2023-11-22T03:04:37;10.52;;;6.57;;
12467;SDS011;57850;52.922;6.256;2023-11-22T03:07:04;10.27;;;6.65;;
12467;SDS011;57850;52.922;6.256;2023-11-22T03:09:31;13.52;;;6.80;;
12467;SDS011;57850;52.922;6.256;2023-11-22T03:11:58;9.80;;;6.20;;
12467;SDS011;57850;52.922;6.256;2023-11-22T03:14:25;11.23;;;6.85;;
12467;SDS011;57850;52.922;6.256;2023-11-22T03:16:53;11.77;;;7.10;;
12467;SDS011;57850;52.922;6.256;2023-11-22T03:19:19;10.77;;;6.05;;
12467;SDS011;57850;52.922;6.256;2023-11-22T03:21:46;10.93;;;7.40;;
12467;SDS011;57850;52.922;6.256;2023-11-22T03:24:12;10.77;;;6.93;;
12467;SDS011;57850;52.922;6.256;2023-11-22T03:26:40;9.38;;;6.70;;
12467;SDS011;57850;52.922;6.256;2023-11-22T03:29:07;14.27;;;8.15;;
12467;SDS011;57850;52.922;6.256;2023-11-22T03:31:34;11.77;;;6.78;;
12467;SDS011;57850;52.922;6.256;2023-11-22T03:34:02;15.23;;;6.75;;
12467;SDS011;57850;52.922;6.256;2023-11-22T03:36:30;11.10;;;7.40;;
12467;SDS011;57850;52.922;6.256;2023-11-22T03:38:57;12.40;;;7.13;;
12467;SDS011;57850;52.922;6.256;2023-11-22T03:41:23;11.00;;;7.00;;
12467;SDS011;57850;52.922;6.256;2023-11-22T03:43:50;13.55;;;6.53;;
12467;SDS011;57850;52.922;6.256;2023-11-22T03:46:17;13.80;;;6.93;;
12467;SDS011;57850;52.922;6.256;2023-11-22T03:48:43;11.77;;;6.88;;
12467;SDS011;57850;52.922;6.256;2023-11-22T03:51:11;11.17;;;6.67;;
12467;SDS011;57850;52.922;6.256;2023-11-22T03:53:38;10.95;;;7.20;;
12467;SDS011;57850;52.922;6.256;2023-11-22T03:56:05;10.43;;;6.30;;
12467;SDS011;57850;52.922;6.256;2023-11-22T03:58:31;12.32;;;7.15;;
12467;SDS011;57850;52.922;6.256;2023-11-22T04:00:58;14.82;;;8.70;;
12467;SDS011;57850;52.922;6.256;2023-11-22T04:03:27;13.98;;;7.68;;
12467;SDS011;57850;52.922;6.256;2023-11-22T04:05:54;12.05;;;7.43;;
12467;SDS011;57850;52.922;6.256;2023-11-22T04:08:23;12.33;;;7.10;;
12467;SDS011;57850;52.922;6.256;2023-11-22T04:10:50;14.73;;;7.97;;
12467;SDS011;57850;52.922;6.256;2023-11-22T04:13:17;11.27;;;7.50;;
12467;SDS011;57850;52.922;6.256;2023-11-22T04:15:43;13.10;;;7.00;;
12467;SDS011;57850;52.922;6.256;2023-11-22T04:18:10;7.57;;;5.13;;
12467;SDS011;57850;52.922;6.256;2023-11-22T04:20:37;11.20;;;6.30;;
12467;SDS011;57850;52.922;6.256;2023-11-22T04:23:03;9.90;;;6.60;;
12467;SDS011;57850;52.922;6.256;2023-11-22T04:25:31;10.27;;;6.13;;
12467;SDS011;57850;52.922;6.256;2023-11-22T04:28:00;12.90;;;6.63;;
12467;SDS011;57850;52.922;6.256;2023-11-22T04:30:26;9.80;;;6.30;;
12467;SDS011;57850;52.922;6.256;2023-11-22T04:32:53;11.27;;;6.50;;
12467;SDS011;57850;52.922;6.256;2023-11-22T04:35:20;11.17;;;6.67;;
12467;SDS011;57850;52.922;6.256;2023-11-22T04:37:46;9.43;;;6.07;;
12467;SDS011;57850;52.922;6.256;2023-11-22T04:40:13;11.40;;;6.60;;
12467;SDS011;57850;52.922;6.256;2023-11-22T04:42:42;10.77;;;6.75;;
12467;SDS011;57850;52.922;6.256;2023-11-22T04:45:09;9.10;;;5.70;;
12467;SDS011;57850;52.922;6.256;2023-11-22T04:47:36;11.97;;;6.73;;
12467;SDS011;57850;52.922;6.256;2023-11-22T04:50:03;9.07;;;6.70;;
12467;SDS011;57850;52.922;6.256;2023-11-22T04:52:30;12.57;;;6.73;;
12467;SDS011;57850;52.922;6.256;2023-11-22T04:54:57;11.90;;;6.47;;
12467;SDS011;57850;52.922;6.256;2023-11-22T04:57:23;13.30;;;7.10;;
12467;SDS011;57850;52.922;6.256;2023-11-22T04:59:51;11.63;;;7.17;;
12467;SDS011;57850;52.922;6.256;2023-11-22T05:02:18;12.02;;;6.72;;
12467;SDS011;57850;52.922;6.256;2023-11-22T05:04:45;12.13;;;6.73;;
12467;SDS011;57850;52.922;6.256;2023-11-22T05:07:14;12.37;;;6.87;;
12467;SDS011;57850;52.922;6.256;2023-11-22T05:09:40;11.67;;;7.50;;
12467;SDS011;57850;52.922;6.256;2023-11-22T05:12:08;9.50;;;6.20;;
12467;SDS011;57850;52.922;6.256;2023-11-22T05:14:35;12.53;;;7.17;;
12467;SDS011;57850;52.922;6.256;2023-11-22T05:17:03;11.07;;;7.20;;
12467;SDS011;57850;52.922;6.256;2023-11-22T05:19:30;15.90;;;7.80;;
12467;SDS011;57850;52.922;6.256;2023-11-22T05:21:57;12.57;;;7.10;;
12467;SDS011;57850;52.922;6.256;2023-11-22T05:24:24;14.07;;;7.37;;
12467;SDS011;57850;52.922;6.256;2023-11-22T05:26:50;10.60;;;6.17;;
12467;SDS011;57850;52.922;6.256;2023-11-22T05:29:17;10.93;;;7.15;;
12467;SDS011;57850;52.922;6.256;2023-11-22T05:31:44;11.57;;;7.17;;
12467;SDS011;57850;52.922;6.256;2023-11-22T05:34:12;12.50;;;7.30;;
12467;SDS011;57850;52.922;6.256;2023-11-22T05:36:39;12.33;;;8.00;;
12467;SDS011;57850;52.922;6.256;2023-11-22T05:39:06;10.50;;;6.83;;
12467;SDS011;57850;52.922;6.256;2023-11-22T05:41:33;14.40;;;7.60;;
12467;SDS011;57850;52.922;6.256;2023-11-22T05:44:01;13.20;;;8.07;;
12467;SDS011;57850;52.922;6.256;2023-11-22T05:46:28;12.35;;;7.22;;
12467;SDS011;57850;52.922;6.256;2023-11-22T05:48:55;13.97;;;7.27;;
12467;SDS011;57850;52.922;6.256;2023-11-22T05:51:23;14.07;;;7.30;;
12467;SDS011;57850;52.922;6.256;2023-11-22T05:53:50;10.20;;;7.33;;
12467;SDS011;57850;52.922;6.256;2023-11-22T05:56:16;10.97;;;7.07;;
12467;SDS011;57850;52.922;6.256;2023-11-22T05:58:44;14.52;;;6.82;;
12467;SDS011;57850;52.922;6.256;2023-11-22T06:01:10;11.17;;;6.70;;
12467;SDS011;57850;52.922;6.256;2023-11-22T06:03:38;14.97;;;8.13;;
12467;SDS011;57850;52.922;6.256;2023-11-22T06:06:05;11.97;;;7.03;;
12467;SDS011;57850;52.922;6.256;2023-11-22T06:08:34;13.63;;;7.60;;
12467;SDS011;57850;52.922;6.256;2023-11-22T06:11:01;16.83;;;8.07;;
12467;SDS011;57850;52.922;6.256;2023-11-22T06:13:28;14.97;;;8.07;;
12467;SDS011;57850;52.922;6.256;2023-11-22T06:15:55;14.63;;;8.50;;
12467;SDS011;57850;52.922;6.256;2023-11-22T06:18:21;17.03;;;9.43;;
12467;SDS011;57850;52.922;6.256;2023-11-22T06:20:54;13.60;;;8.50;;
12467;SDS011;57850;52.922;6.256;2023-11-22T06:23:21;13.80;;;8.37;;
12467;SDS011;57850;52.922;6.256;2023-11-22T06:25:49;13.30;;;8.23;;
12467;SDS011;57850;52.922;6.256;2023-11-22T06:28:16;14.73;;;7.40;;
12467;SDS011;57850;52.922;6.256;2023-11-22T06:30:44;15.23;;;8.82;;
12467;SDS011;57850;52.922;6.256;2023-11-22T06:33:10;15.05;;;8.15;;
12467;SDS011;57850;52.922;6.256;2023-11-22T06:35:37;13.17;;;8.33;;
12467;SDS011;57850;52.922;6.256;2023-11-22T06:38:03;13.33;;;8.17;;
12467;SDS011;57850;52.922;6.256;2023-11-22T06:40:30;16.45;;;8.95;;
12467;SDS011;57850;52.922;6.256;2023-11-22T06:42:58;14.47;;;8.77;;
12467;SDS011;57850;52.922;6.256;2023-11-22T06:45:25;16.10;;;8.03;;
12467;SDS011;57850;52.922;6.256;2023-11-22T06:47:51;13.30;;;8.20;;
12467;SDS011;57850;52.922;6.256;2023-11-22T06:50:18;15.60;;;8.73;;
12467;SDS011;57850;52.922;6.256;2023-11-22T06:52:46;14.43;;;8.33;;
12467;SDS011;57850;52.922;6.256;2023-11-22T06:55:15;15.47;;;9.10;;
12467;SDS011;57850;52.922;6.256;2023-11-22T06:57:42;20.20;;;8.17;;
12467;SDS011;57850;52.922;6.256;2023-11-22T07:00:11;15.23;;;8.57;;
12467;SDS011;57850;52.922;6.256;2023-11-22T07:02:39;19.87;;;9.97;;
12467;SDS011;57850;52.922;6.256;2023-11-22T07:05:06;17.02;;;9.52;;
12467;SDS011;57850;52.922;6.256;2023-11-22T07:07:34;15.90;;;9.80;;
12467;SDS011;57850;52.922;6.256;2023-11-22T07:10:00;20.20;;;9.85;;
12467;SDS011;57850;52.922;6.256;2023-11-22T07:12:27;17.20;;;9.88;;
12467;SDS011;57850;52.922;6.256;2023-11-22T07:14:54;16.40;;;9.40;;
12467;SDS011;57850;52.922;6.256;2023-11-22T07:17:23;20.57;;;9.93;;
12467;SDS011;57850;52.922;6.256;2023-11-22T07:19:52;18.33;;;9.97;;
12467;SDS011;57850;52.922;6.256;2023-11-22T07:22:19;20.47;;;9.73;;
12467;SDS011;57850;52.922;6.256;2023-11-22T07:24:47;18.63;;;10.10;;
12467;SDS011;57850;52.922;6.256;2023-11-22T07:27:16;17.73;;;9.50;;
12467;SDS011;57850;52.922;6.256;2023-11-22T07:29:43;17.27;;;8.90;;
12467;SDS011;57850;52.922;6.256;2023-11-22T07:32:11;17.50;;;10.03;;
12467;SDS011;57850;52.922;6.256;2023-11-22T07:34:40;19.67;;;10.43;;
12467;SDS011;57850;52.922;6.256;2023-11-22T07:37:07;20.10;;;10.07;;
12467;SDS011;57850;52.922;6.256;2023-11-22T07:39:34;18.83;;;10.17;;
12467;SDS011;57850;52.922;6.256;2023-11-22T07:42:01;21.77;;;10.43;;
12467;SDS011;57850;52.922;6.256;2023-11-22T07:44:28;21.30;;;10.23;;
12467;SDS011;57850;52.922;6.256;2023-11-22T07:46:57;21.40;;;10.53;;
12467;SDS011;57850;52.922;6.256;2023-11-22T07:49:24;19.87;;;9.87;;
12467;SDS011;57850;52.922;6.256;2023-11-22T07:51:52;18.93;;;9.93;;
12467;SDS011;57850;52.922;6.256;2023-11-22T07:54:19;21.50;;;11.53;;
12467;SDS011;57850;52.922;6.256;2023-11-22T07:56:47;18.95;;;10.45;;
12467;SDS011;57850;52.922;6.256;2023-11-22T07:59:14;19.58;;;10.23;;
12467;SDS011;57850;52.922;6.256;2023-11-22T08:01:42;18.83;;;10.37;;
12467;SDS011;57850;52.922;6.256;2023-11-22T08:04:09;24.03;;;10.90;;
12467;SDS011;57850;52.922;6.256;2023-11-22T08:06:37;18.33;;;10.87;;
12467;SDS011;57850;52.922;6.256;2023-11-22T08:09:05;19.53;;;10.53;;
12467;SDS011;57850;52.922;6.256;2023-11-22T08:11:34;18.10;;;10.02;;
12467;SDS011;57850;52.922;6.256;2023-11-22T08:14:01;19.37;;;10.30;;
12467;SDS011;57850;52.922;6.256;2023-11-22T08:16:28;17.30;;;9.77;;
12467;SDS011;57850;52.922;6.256;2023-11-22T08:18:54;18.80;;;10.77;;
12467;SDS011;57850;52.922;6.256;2023-11-22T08:21:21;21.17;;;11.63;;
12467;SDS011;57850;52.922;6.256;2023-11-22T08:23:48;19.03;;;10.90;;
12467;SDS011;57850;52.922;6.256;2023-11-22T08:26:16;21.80;;;11.32;;
12467;SDS011;57850;52.922;6.256;2023-11-22T08:28:43;21.90;;;11.67;;
12467;SDS011;57850;52.922;6.256;2023-11-22T08:31:10;19.60;;;11.50;;
12467;SDS011;57850;52.922;6.256;2023-11-22T08:33:36;21.07;;;11.57;;
12467;SDS011;57850;52.922;6.256;2023-11-22T08:36:04;20.20;;;10.90;;
12467;SDS011;57850;52.922;6.256;2023-11-22T08:38:31;21.60;;;11.03;;
12467;SDS011;57850;52.922;6.256;2023-11-22T08:41:00;20.73;;;11.20;;
12467;SDS011;57850;52.922;6.256;2023-11-22T08:43:29;23.13;;;11.23;;
12467;SDS011;57850;52.922;6.256;2023-11-22T08:45:57;21.35;;;11.90;;
12467;SDS011;57850;52.922;6.256;2023-11-22T08:48:23;23.92;;;11.35;;
12467;SDS011;57850;52.922;6.256;2023-11-22T08:50:50;19.93;;;10.73;;
12467;SDS011;57850;52.922;6.256;2023-11-22T08:53:18;24.73;;;12.33;;
12467;SDS011;57850;52.922;6.256;2023-11-22T08:55:45;24.67;;;11.77;;
12467;SDS011;57850;52.922;6.256;2023-11-22T08:58:12;24.17;;;12.10;;
12467;SDS011;57850;52.922;6.256;2023-11-22T09:00:40;22.60;;;11.77;;
12467;SDS011;57850;52.922;6.256;2023-11-22T09:03:08;25.23;;;12.50;;
12467;SDS011;57850;52.922;6.256;2023-11-22T09:05:37;19.83;;;11.43;;
12467;SDS011;57850;52.922;6.256;2023-11-22T09:08:04;23.47;;;13.37;;
12467;SDS011;57850;52.922;6.256;2023-11-22T09:10:31;22.50;;;11.80;;
12467;SDS011;57850;52.922;6.256;2023-11-22T09:12:58;22.00;;;12.70;;
12467;SDS011;57850;52.922;6.256;2023-11-22T09:15:26;24.43;;;13.03;;
12467;SDS011;57850;52.922;6.256;2023-11-22T09:17:56;22.23;;;12.53;;
12467;SDS011;57850;52.922;6.256;2023-11-22T09:20:23;25.45;;;13.05;;
12467;SDS011;57850;52.922;6.256;2023-11-22T09:22:50;25.17;;;13.55;;
12467;SDS011;57850;52.922;6.256;2023-11-22T09:25:20;22.47;;;12.73;;
12467;SDS011;57850;52.922;6.256;2023-11-22T09:27:49;24.40;;;12.10;;
12467;SDS011;57850;52.922;6.256;2023-11-22T09:30:18;22.43;;;12.67;;
12467;SDS011;57850;52.922;6.256;2023-11-22T09:32:59;19.08;;;11.85;;
12467;SDS011;57850;52.922;6.256;2023-11-22T09:35:26;25.40;;;12.37;;
12467;SDS011;57850;52.922;6.256;2023-11-22T09:37:54;24.73;;;12.82;;
12467;SDS011;57850;52.922;6.256;2023-11-22T09:40:21;25.33;;;12.85;;
12467;SDS011;57850;52.922;6.256;2023-11-22T09:42:48;25.48;;;12.45;;
12467;SDS011;57850;52.922;6.256;2023-11-22T09:45:18;22.17;;;13.25;;
12467;SDS011;57850;52.922;6.256;2023-11-22T09:47:46;21.52;;;12.95;;
12467;SDS011;57850;52.922;6.256;2023-11-22T09:50:16;24.20;;;12.68;;
12467;SDS011;57850;52.922;6.256;2023-11-22T09:52:46;21.20;;;13.43;;
12467;SDS011;57850;52.922;6.256;2023-11-22T09:55:15;19.70;;;11.80;;
12467;SDS011;57850;52.922;6.256;2023-11-22T09:57:42;22.75;;;13.00;;
12467;SDS011;57850;52.922;6.256;2023-11-22T10:00:10;22.45;;;13.38;;
12467;SDS011;57850;52.922;6.256;2023-11-22T10:02:39;22.05;;;13.02;;
12467;SDS011;57850;52.922;6.256;2023-11-22T10:05:06;26.65;;;12.75;;
12467;SDS011;57850;52.922;6.256;2023-11-22T10:07:36;21.40;;;12.98;;
12467;SDS011;57850;52.922;6.256;2023-11-22T10:10:03;25.10;;;12.70;;
12467;SDS011;57850;52.922;6.256;2023-11-22T10:12:32;22.38;;;13.00;;
12467;SDS011;57850;52.922;6.256;2023-11-22T10:15:10;27.30;;;12.85;;
12467;SDS011;57850;52.922;6.256;2023-11-22T10:17:38;22.27;;;12.23;;
12467;SDS011;57850;52.922;6.256;2023-11-22T10:20:05;21.17;;;12.63;;
12467;SDS011;57850;52.922;6.256;2023-11-22T10:22:43;22.98;;;13.10;;
12467;SDS011;57850;52.922;6.256;2023-11-22T10:25:10;18.10;;;12.07;;
12467;SDS011;57850;52.922;6.256;2023-11-22T10:27:38;24.05;;;12.63;;
12467;SDS011;57850;52.922;6.256;2023-11-22T10:30:06;19.55;;;11.57;;
12467;SDS011;57850;52.922;6.256;2023-11-22T10:32:36;20.85;;;11.45;;
12467;SDS011;57850;52.922;6.256;2023-11-22T10:35:04;21.10;;;11.98;;
12467;SDS011;57850;52.922;6.256;2023-11-22T10:37:32;20.70;;;11.75;;
12467;SDS011;57850;52.922;6.256;2023-11-22T10:40:00;21.40;;;12.32;;
12467;SDS011;57850;52.922;6.256;2023-11-22T10:42:29;19.35;;;11.60;;
12467;SDS011;57850;52.922;6.256;2023-11-22T10:44:56;18.13;;;11.60;;
12467;SDS011;57850;52.922;6.256;2023-11-22T10:47:24;16.92;;;10.50;;
12467;SDS011;57850;52.922;6.256;2023-11-22T10:49:55;17.08;;;11.18;;
12467;SDS011;57850;52.922;6.256;2023-11-22T10:52:21;18.48;;;11.45;;
12467;SDS011;57850;52.922;6.256;2023-11-22T10:54:55;14.88;;;9.40;;
12467;SDS011;57850;52.922;6.256;2023-11-22T10:57:29;16.30;;;10.43;;
12467;SDS011;57850;52.922;6.256;2023-11-22T10:59:58;14.73;;;8.57;;
12467;SDS011;57850;52.922;6.256;2023-11-22T11:02:31;11.75;;;8.20;;
12467;SDS011;57850;52.922;6.256;2023-11-22T11:05:03;14.23;;;8.73;;
12467;SDS011;57850;52.922;6.256;2023-11-22T11:07:38;15.20;;;9.80;;
12467;SDS011;57850;52.922;6.256;2023-11-22T11:10:08;10.93;;;7.85;;
12467;SDS011;57850;52.922;6.256;2023-11-22T11:12:36;14.63;;;7.75;;
12467;SDS011;57850;52.922;6.256;2023-11-22T11:15:04;10.95;;;7.93;;
12467;SDS011;57850;52.922;6.256;2023-11-22T11:17:33;12.75;;;7.97;;
12467;SDS011;57850;52.922;6.256;2023-11-22T11:20:00;11.35;;;7.72;;
12467;SDS011;57850;52.922;6.256;2023-11-22T11:22:27;9.95;;;7.40;;
12467;SDS011;57850;52.922;6.256;2023-11-22T11:24:59;11.48;;;7.72;;
12467;SDS011;57850;52.922;6.256;2023-11-22T11:27:30;10.80;;;6.63;;
12467;SDS011;57850;52.922;6.256;2023-11-22T11:30:00;11.40;;;7.20;;
12467;SDS011;57850;52.922;6.256;2023-11-22T11:32:31;11.38;;;7.63;;
12467;SDS011;57850;52.922;6.256;2023-11-22T11:34:58;8.63;;;6.53;;
12467;SDS011;57850;52.922;6.256;2023-11-22T11:37:31;11.80;;;6.68;;
12467;SDS011;57850;52.922;6.256;2023-11-22T11:39:58;9.25;;;6.32;;
12467;SDS011;57850;52.922;6.256;2023-11-22T11:42:25;9.80;;;6.45;;
12467;SDS011;57850;52.922;6.256;2023-11-22T11:45:04;7.72;;;6.05;;
12467;SDS011;57850;52.922;6.256;2023-11-22T11:47:32;12.50;;;6.50;;
12467;SDS011;57850;52.922;6.256;2023-11-22T11:49:59;8.70;;;6.20;;
12467;SDS011;57850;52.922;6.256;2023-11-22T11:52:26;11.32;;;6.57;;
12467;SDS011;57850;52.922;6.256;2023-11-22T11:54:53;11.55;;;7.30;;
12467;SDS011;57850;52.922;6.256;2023-11-22T11:57:20;11.18;;;7.25;;
12467;SDS011;57850;52.922;6.256;2023-11-22T11:59:47;7.88;;;6.10;;
12467;SDS011;57850;52.922;6.256;2023-11-22T12:02:17;7.72;;;5.97;;
12467;SDS011;57850;52.922;6.256;2023-11-22T12:04:44;8.88;;;6.30;;
12467;SDS011;57850;52.922;6.256;2023-11-22T12:07:11;9.80;;;6.40;;
12467;SDS011;57850;52.922;6.256;2023-11-22T12:09:38;8.73;;;6.25;;
12467;SDS011;57850;52.922;6.256;2023-11-22T12:12:06;9.07;;;6.78;;
12467;SDS011;57850;52.922;6.256;2023-11-22T12:14:33;10.20;;;6.35;;
12467;SDS011;57850;52.922;6.256;2023-11-22T12:16:59;11.23;;;6.65;;
12467;SDS011;57850;52.922;6.256;2023-11-22T12:19:28;10.30;;;6.72;;
12467;SDS011;57850;52.922;6.256;2023-11-22T12:21:56;12.80;;;7.60;;
12467;SDS011;57850;52.922;6.256;2023-11-22T12:24:24;10.52;;;6.78;;
12467;SDS011;57850;52.922;6.256;2023-11-22T12:26:51;10.73;;;6.47;;
12467;SDS011;57850;52.922;6.256;2023-11-22T12:29:20;10.75;;;7.15;;
12467;SDS011;57850;52.922;6.256;2023-11-22T12:31:49;9.80;;;6.80;;
12467;SDS011;57850;52.922;6.256;2023-11-22T12:34:18;10.85;;;6.47;;
12467;SDS011;57850;52.922;6.256;2023-11-22T12:36:46;7.72;;;5.63;;
12467;SDS011;57850;52.922;6.256;2023-11-22T12:39:13;11.10;;;6.00;;
12467;SDS011;57850;52.922;6.256;2023-11-22T12:41:42;8.57;;;5.97;;
12467;SDS011;57850;52.922;6.256;2023-11-22T12:44:10;9.15;;;6.35;;
12467;SDS011;57850;52.922;6.256;2023-11-22T12:46:44;11.23;;;6.18;;
12467;SDS011;57850;52.922;6.256;2023-11-22T12:49:12;9.13;;;6.50;;
12467;SDS011;57850;52.922;6.256;2023-11-22T12:51:38;10.02;;;6.85;;
12467;SDS011;57850;52.922;6.256;2023-11-22T12:54:13;7.60;;;5.70;;
12467;SDS011;57850;52.922;6.256;2023-11-22T12:56:40;9.13;;;5.82;;
12467;SDS011;57850;52.922;6.256;2023-11-22T12:59:07;10.13;;;6.15;;
12467;SDS011;57850;52.922;6.256;2023-11-22T13:01:34;9.55;;;6.13;;
12467;SDS011;57850;52.922;6.256;2023-11-22T13:04:01;8.50;;;6.30;;
12467;SDS011;57850;52.922;6.256;2023-11-22T13:06:28;9.15;;;6.18;;
12467;SDS011;57850;52.922;6.256;2023-11-22T13:08:55;9.80;;;6.28;;
12467;SDS011;57850;52.922;6.256;2023-11-22T13:11:23;9.20;;;5.88;;
12467;SDS011;57850;52.922;6.256;2023-11-22T13:13:51;11.95;;;6.88;;
12467;SDS011;57850;52.922;6.256;2023-11-22T13:16:17;8.93;;;6.30;;
12467;SDS011;57850;52.922;6.256;2023-11-22T13:18:44;13.75;;;7.00;;
12467;SDS011;57850;52.922;6.256;2023-11-22T13:21:11;9.80;;;6.82;;
12467;SDS011;57850;52.922;6.256;2023-11-22T13:23:38;9.75;;;6.57;;
12467;SDS011;57850;52.922;6.256;2023-11-22T13:26:05;13.38;;;6.97;;
12467;SDS011;57850;52.922;6.256;2023-11-22T13:28:36;10.90;;;7.53;;
12467;SDS011;57850;52.922;6.256;2023-11-22T13:31:03;11.23;;;6.65;;
12467;SDS011;57850;52.922;6.256;2023-11-22T13:33:29;11.15;;;7.32;;
12467;SDS011;57850;52.922;6.256;2023-11-22T13:35:56;10.73;;;6.82;;
12467;SDS011;57850;52.922;6.256;2023-11-22T13:38:23;12.05;;;7.57;;
12467;SDS011;57850;52.922;6.256;2023-11-22T13:40:50;10.73;;;7.13;;
12467;SDS011;57850;52.922;6.256;2023-11-22T13:43:17;11.57;;;7.68;;
12467;SDS011;57850;52.922;6.256;2023-11-22T13:45:46;10.32;;;6.85;;
12467;SDS011;57850;52.922;6.256;2023-11-22T13:48:15;11.85;;;7.75;;
12467;SDS011;57850;52.922;6.256;2023-11-22T13:50:42;11.07;;;7.78;;
12467;SDS011;57850;52.922;6.256;2023-11-22T13:53:08;12.20;;;7.40;;
12467;SDS011;57850;52.922;6.256;2023-11-22T13:55:36;14.30;;;7.75;;
12467;SDS011;57850;52.922;6.256;2023-11-22T13:58:03;11.73;;;8.27;;
12467;SDS011;57850;52.922;6.256;2023-11-22T14:00:32;12.13;;;8.15;;
12467;SDS011;57850;52.922;6.256;2023-11-22T14:03:01;11.90;;;8.32;;
12467;SDS011;57850;52.922;6.256;2023-11-22T14:05:30;12.10;;;7.63;;
12467;SDS011;57850;52.922;6.256;2023-11-22T14:07:58;13.02;;;8.23;;
12467;SDS011;57850;52.922;6.256;2023-11-22T14:10:25;13.27;;;8.75;;
12467;SDS011;57850;52.922;6.256;2023-11-22T14:12:52;13.80;;;8.40;;
12467;SDS011;57850;52.922;6.256;2023-11-22T14:15:19;15.60;;;7.82;;
12467;SDS011;57850;52.922;6.256;2023-11-22T14:17:46;13.95;;;8.90;;
12467;SDS011;57850;52.922;6.256;2023-11-22T14:20:17;12.90;;;8.73;;
12467;SDS011;57850;52.922;6.256;2023-11-22T14:22:46;15.50;;;7.97;;
12467;SDS011;57850;52.922;6.256;2023-11-22T14:25:13;15.95;;;8.70;;
12467;SDS011;57850;52.922;6.256;2023-11-22T14:27:40;15.27;;;8.88;;
12467;SDS011;57850;52.922;6.256;2023-11-22T14:30:08;13.10;;;8.48;;
12467;SDS011;57850;52.922;6.256;2023-11-22T14:32:39;18.00;;;9.45;;
12467;SDS011;57850;52.922;6.256;2023-11-22T14:35:07;15.23;;;9.02;;